sensor_id;sensor_type;location;lat;lon;timestamp;P1;durP1;ratioP1;P2;durP2;ratioP2
66609;SDS011;53468;48.276;14.416;2023-08-21T00:03:53;11.23;;;9.30;;
66609;SDS011;53468;48.276;14.416;2023-08-21T00:08:56;15.43;;;10.43;;
66609;SDS011;53468;48.276;14.416;2023-08-21T00:13:59;12.02;;;9.75;;
66609;SDS011;53468;48.276;14.416;2023-08-21T00:19:02;12.65;;;10.50;;
66609;SDS011;53468;48.276;14.416;2023-08-21T00:24:04;12.50;;;10.18;;
66609;SDS011;53468;48.276;14.416;2023-08-21T00:29:08;12.65;;;10.20;;
66609;SDS011;53468;48.276;14.416;2023-08-21T00:34:11;14.10;;;10.98;;
66609;SDS011;53468;48.276;14.416;2023-08-21T00:39:13;12.98;;;10.90;;
66609;SDS011;53468;48.276;14.416;2023-08-21T00:44:17;13.07;;;10.77;;
66609;SDS011;53468;48.276;14.416;2023-08-21T00:49:19;15.38;;;11.25;;
66609;SDS011;53468;48.276;14.416;2023-08-21T00:54:22;16.23;;;11.57;;
66609;SDS011;53468;48.276;14.416;2023-08-21T00:59:27;13.70;;;10.73;;
66609;SDS011;53468;48.276;14.416;2023-08-21T01:04:29;16.17;;;10.88;;
66609;SDS011;53468;48.276;14.416;2023-08-21T01:09:33;14.80;;;11.00;;
66609;SDS011;53468;48.276;14.416;2023-08-21T01:14:45;13.98;;;10.10;;
66609;SDS011;53468;48.276;14.416;2023-08-21T01:19:54;15.32;;;12.63;;
66609;SDS011;53468;48.276;14.416;2023-08-21T01:24:59;16.40;;;10.35;;
66609;SDS011;53468;48.276;14.416;2023-08-21T01:30:02;14.25;;;11.23;;
66609;SDS011;53468;48.276;14.416;2023-08-21T01:35:07;15.13;;;10.95;;
66609;SDS011;53468;48.276;14.416;2023-08-21T01:40:12;15.15;;;10.57;;
66609;SDS011;53468;48.276;14.416;2023-08-21T01:45:22;15.30;;;11.18;;
66609;SDS011;53468;48.276;14.416;2023-08-21T01:50:25;15.10;;;11.55;;
66609;SDS011;53468;48.276;14.416;2023-08-21T01:55:29;15.18;;;11.85;;
66609;SDS011;53468;48.276;14.416;2023-08-21T02:00:33;16.33;;;11.82;;
66609;SDS011;53468;48.276;14.416;2023-08-21T02:05:38;14.38;;;10.75;;
66609;SDS011;53468;48.276;14.416;2023-08-21T02:10:52;14.10;;;12.10;;
66609;SDS011;53468;48.276;14.416;2023-08-21T02:15:56;16.23;;;11.60;;
66609;SDS011;53468;48.276;14.416;2023-08-21T02:21:00;13.63;;;10.68;;
66609;SDS011;53468;48.276;14.416;2023-08-21T02:26:04;16.13;;;12.35;;
66609;SDS011;53468;48.276;14.416;2023-08-21T02:31:09;16.27;;;11.95;;
66609;SDS011;53468;48.276;14.416;2023-08-21T02:36:11;17.23;;;12.45;;
66609;SDS011;53468;48.276;14.416;2023-08-21T02:41:15;16.38;;;11.48;;
66609;SDS011;53468;48.276;14.416;2023-08-21T02:46:19;14.75;;;11.63;;
66609;SDS011;53468;48.276;14.416;2023-08-21T02:51:22;16.83;;;12.05;;
66609;SDS011;53468;48.276;14.416;2023-08-21T02:56:26;12.85;;;10.65;;
66609;SDS011;53468;48.276;14.416;2023-08-21T03:01:29;16.08;;;12.38;;
66609;SDS011;53468;48.276;14.416;2023-08-21T03:06:31;16.77;;;11.48;;
66609;SDS011;53468;48.276;14.416;2023-08-21T03:11:35;14.30;;;11.55;;
66609;SDS011;53468;48.276;14.416;2023-08-21T03:16:38;14.52;;;12.00;;
66609;SDS011;53468;48.276;14.416;2023-08-21T03:21:41;20.30;;;12.48;;
66609;SDS011;53468;48.276;14.416;2023-08-21T03:26:45;13.80;;;11.30;;
66609;SDS011;53468;48.276;14.416;2023-08-21T03:31:49;13.32;;;10.93;;
66609;SDS011;53468;48.276;14.416;2023-08-21T03:36:52;15.07;;;11.07;;
66609;SDS011;53468;48.276;14.416;2023-08-21T03:41:56;13.50;;;11.18;;
66609;SDS011;53468;48.276;14.416;2023-08-21T03:46:59;15.77;;;10.93;;
66609;SDS011;53468;48.276;14.416;2023-08-21T03:52:01;17.15;;;12.50;;
66609;SDS011;53468;48.276;14.416;2023-08-21T03:57:07;16.48;;;12.73;;
66609;SDS011;53468;48.276;14.416;2023-08-21T04:02:11;16.42;;;12.52;;
66609;SDS011;53468;48.276;14.416;2023-08-21T04:07:14;20.00;;;12.93;;
66609;SDS011;53468;48.276;14.416;2023-08-21T04:12:19;15.13;;;11.65;;
66609;SDS011;53468;48.276;14.416;2023-08-21T04:17:21;14.90;;;11.57;;
66609;SDS011;53468;48.276;14.416;2023-08-21T04:22:24;15.95;;;12.32;;
66609;SDS011;53468;48.276;14.416;2023-08-21T04:27:29;18.70;;;12.40;;
66609;SDS011;53468;48.276;14.416;2023-08-21T04:32:33;18.63;;;12.10;;
66609;SDS011;53468;48.276;14.416;2023-08-21T04:37:42;17.10;;;12.77;;
66609;SDS011;53468;48.276;14.416;2023-08-21T04:42:48;16.58;;;12.52;;
66609;SDS011;53468;48.276;14.416;2023-08-21T04:47:51;16.90;;;11.77;;
66609;SDS011;53468;48.276;14.416;2023-08-21T04:52:53;16.27;;;12.93;;
66609;SDS011;53468;48.276;14.416;2023-08-21T04:57:58;16.23;;;12.40;;
66609;SDS011;53468;48.276;14.416;2023-08-21T05:03:01;19.77;;;13.05;;
66609;SDS011;53468;48.276;14.416;2023-08-21T05:08:05;16.65;;;12.98;;
66609;SDS011;53468;48.276;14.416;2023-08-21T05:13:10;19.63;;;13.95;;
66609;SDS011;53468;48.276;14.416;2023-08-21T05:18:12;15.48;;;12.70;;
66609;SDS011;53468;48.276;14.416;2023-08-21T05:23:15;19.00;;;12.63;;
66609;SDS011;53468;48.276;14.416;2023-08-21T05:28:23;16.08;;;12.02;;
66609;SDS011;53468;48.276;14.416;2023-08-21T05:33:40;15.95;;;12.20;;
66609;SDS011;53468;48.276;14.416;2023-08-21T05:38:48;14.38;;;11.80;;
66609;SDS011;53468;48.276;14.416;2023-08-21T05:44:00;15.30;;;11.93;;
66609;SDS011;53468;48.276;14.416;2023-08-21T05:49:04;20.52;;;11.88;;
66609;SDS011;53468;48.276;14.416;2023-08-21T05:54:13;15.52;;;12.77;;
66609;SDS011;53468;48.276;14.416;2023-08-21T06:04:58;14.80;;;12.43;;
66609;SDS011;53468;48.276;14.416;2023-08-21T06:10:11;16.58;;;12.18;;
66609;SDS011;53468;48.276;14.416;2023-08-21T06:15:37;15.10;;;11.88;;
66609;SDS011;53468;48.276;14.416;2023-08-21T06:20:46;16.63;;;11.50;;
66609;SDS011;53468;48.276;14.416;2023-08-21T06:25:57;14.98;;;10.63;;
66609;SDS011;53468;48.276;14.416;2023-08-21T06:31:01;15.80;;;12.38;;
66609;SDS011;53468;48.276;14.416;2023-08-21T06:36:19;15.27;;;11.20;;
66609;SDS011;53468;48.276;14.416;2023-08-21T06:41:22;16.10;;;11.52;;
66609;SDS011;53468;48.276;14.416;2023-08-21T06:46:25;14.43;;;11.15;;
66609;SDS011;53468;48.276;14.416;2023-08-21T06:51:29;16.23;;;10.63;;
66609;SDS011;53468;48.276;14.416;2023-08-21T06:56:34;13.35;;;10.23;;
66609;SDS011;53468;48.276;14.416;2023-08-21T07:01:37;12.98;;;10.45;;
66609;SDS011;53468;48.276;14.416;2023-08-21T07:06:40;13.05;;;10.75;;
66609;SDS011;53468;48.276;14.416;2023-08-21T07:11:42;13.60;;;10.48;;
66609;SDS011;53468;48.276;14.416;2023-08-21T07:16:45;12.88;;;10.23;;
66609;SDS011;53468;48.276;14.416;2023-08-21T07:21:48;11.40;;;9.57;;
66609;SDS011;53468;48.276;14.416;2023-08-21T07:26:50;14.45;;;10.18;;
66609;SDS011;53468;48.276;14.416;2023-08-21T07:31:52;15.20;;;11.20;;
66609;SDS011;53468;48.276;14.416;2023-08-21T07:36:56;13.48;;;10.73;;
66609;SDS011;53468;48.276;14.416;2023-08-21T07:41:58;11.40;;;9.68;;
66609;SDS011;53468;48.276;14.416;2023-08-21T07:47:00;11.50;;;10.30;;
66609;SDS011;53468;48.276;14.416;2023-08-21T07:52:04;11.95;;;9.82;;
66609;SDS011;53468;48.276;14.416;2023-08-21T07:57:06;11.43;;;10.02;;
66609;SDS011;53468;48.276;14.416;2023-08-21T08:02:08;11.57;;;9.32;;
66609;SDS011;53468;48.276;14.416;2023-08-21T08:07:13;11.73;;;9.98;;
66609;SDS011;53468;48.276;14.416;2023-08-21T08:12:15;11.80;;;10.35;;
66609;SDS011;53468;48.276;14.416;2023-08-21T08:17:17;10.48;;;9.00;;
66609;SDS011;53468;48.276;14.416;2023-08-21T08:22:21;11.98;;;9.75;;
66609;SDS011;53468;48.276;14.416;2023-08-21T08:27:23;13.60;;;10.23;;
66609;SDS011;53468;48.276;14.416;2023-08-21T08:32:25;10.43;;;9.05;;
66609;SDS011;53468;48.276;14.416;2023-08-21T08:37:28;16.00;;;9.82;;
66609;SDS011;53468;48.276;14.416;2023-08-21T08:42:30;12.10;;;9.32;;
66609;SDS011;53468;48.276;14.416;2023-08-21T08:47:32;10.05;;;9.05;;
66609;SDS011;53468;48.276;14.416;2023-08-21T08:52:37;10.00;;;8.50;;
66609;SDS011;53468;48.276;14.416;2023-08-21T08:57:40;12.75;;;8.73;;
66609;SDS011;53468;48.276;14.416;2023-08-21T09:02:42;12.70;;;9.57;;
66609;SDS011;53468;48.276;14.416;2023-08-21T09:07:46;10.68;;;8.77;;
66609;SDS011;53468;48.276;14.416;2023-08-21T09:13:08;11.27;;;9.60;;
66609;SDS011;53468;48.276;14.416;2023-08-21T09:18:12;10.18;;;8.75;;
66609;SDS011;53468;48.276;14.416;2023-08-21T09:23:16;10.88;;;9.63;;
66609;SDS011;53468;48.276;14.416;2023-08-21T09:28:20;9.60;;;8.60;;
66609;SDS011;53468;48.276;14.416;2023-08-21T09:33:22;8.88;;;7.97;;
66609;SDS011;53468;48.276;14.416;2023-08-21T09:38:27;11.82;;;8.75;;
66609;SDS011;53468;48.276;14.416;2023-08-21T09:43:29;10.07;;;8.93;;
66609;SDS011;53468;48.276;14.416;2023-08-21T09:48:32;10.93;;;8.07;;
66609;SDS011;53468;48.276;14.416;2023-08-21T09:53:37;9.80;;;8.77;;
66609;SDS011;53468;48.276;14.416;2023-08-21T09:58:40;8.95;;;8.05;;
66609;SDS011;53468;48.276;14.416;2023-08-21T10:03:42;10.93;;;7.78;;
66609;SDS011;53468;48.276;14.416;2023-08-21T10:08:50;11.05;;;8.20;;
66609;SDS011;53468;48.276;14.416;2023-08-21T10:13:55;8.63;;;7.72;;
66609;SDS011;53468;48.276;14.416;2023-08-21T10:19:00;9.52;;;8.50;;
66609;SDS011;53468;48.276;14.416;2023-08-21T10:24:07;9.77;;;8.85;;
66609;SDS011;53468;48.276;14.416;2023-08-21T10:29:09;10.07;;;7.63;;
66609;SDS011;53468;48.276;14.416;2023-08-21T10:34:11;9.20;;;8.13;;
66609;SDS011;53468;48.276;14.416;2023-08-21T10:39:16;8.90;;;8.00;;
66609;SDS011;53468;48.276;14.416;2023-08-21T10:44:23;11.23;;;8.98;;
66609;SDS011;53468;48.276;14.416;2023-08-21T10:49:35;9.60;;;7.90;;
66609;SDS011;53468;48.276;14.416;2023-08-21T10:54:48;8.32;;;7.43;;
66609;SDS011;53468;48.276;14.416;2023-08-21T10:59:52;9.10;;;7.22;;
66609;SDS011;53468;48.276;14.416;2023-08-21T11:04:56;10.27;;;7.70;;
66609;SDS011;53468;48.276;14.416;2023-08-21T11:10:00;13.95;;;7.32;;
66609;SDS011;53468;48.276;14.416;2023-08-21T11:15:03;9.15;;;7.72;;
66609;SDS011;53468;48.276;14.416;2023-08-21T11:20:06;11.20;;;7.25;;
66609;SDS011;53468;48.276;14.416;2023-08-21T11:25:11;8.88;;;6.68;;
66609;SDS011;53468;48.276;14.416;2023-08-21T11:30:13;10.60;;;7.28;;
66609;SDS011;53468;48.276;14.416;2023-08-21T11:35:15;16.67;;;7.90;;
66609;SDS011;53468;48.276;14.416;2023-08-21T11:40:19;7.05;;;6.25;;
66609;SDS011;53468;48.276;14.416;2023-08-21T11:45:21;8.68;;;6.85;;
66609;SDS011;53468;48.276;14.416;2023-08-21T11:50:23;10.35;;;7.05;;
66609;SDS011;53468;48.276;14.416;2023-08-21T11:55:28;9.75;;;6.88;;
66609;SDS011;53468;48.276;14.416;2023-08-21T12:00:31;8.45;;;5.90;;
66609;SDS011;53468;48.276;14.416;2023-08-21T12:05:35;8.77;;;6.80;;
66609;SDS011;53468;48.276;14.416;2023-08-21T12:10:49;11.75;;;5.40;;
66609;SDS011;53468;48.276;14.416;2023-08-21T12:15:55;7.53;;;6.70;;
66609;SDS011;53468;48.276;14.416;2023-08-21T12:20:57;6.85;;;5.40;;
66609;SDS011;53468;48.276;14.416;2023-08-21T12:26:04;8.35;;;5.05;;
66609;SDS011;53468;48.276;14.416;2023-08-21T12:31:06;5.15;;;4.13;;
66609;SDS011;53468;48.276;14.416;2023-08-21T12:36:08;5.82;;;4.82;;
66609;SDS011;53468;48.276;14.416;2023-08-21T12:41:14;5.28;;;4.78;;
66609;SDS011;53468;48.276;14.416;2023-08-21T12:46:16;6.50;;;5.05;;
66609;SDS011;53468;48.276;14.416;2023-08-21T12:51:18;5.63;;;4.80;;
66609;SDS011;53468;48.276;14.416;2023-08-21T12:56:21;5.85;;;4.70;;
66609;SDS011;53468;48.276;14.416;2023-08-21T13:01:23;9.95;;;4.93;;
66609;SDS011;53468;48.276;14.416;2023-08-21T13:06:26;9.27;;;4.60;;
66609;SDS011;53468;48.276;14.416;2023-08-21T13:11:30;7.90;;;4.97;;
66609;SDS011;53468;48.276;14.416;2023-08-21T13:16:33;4.45;;;3.60;;
66609;SDS011;53468;48.276;14.416;2023-08-21T13:21:36;6.47;;;4.95;;
66609;SDS011;53468;48.276;14.416;2023-08-21T13:26:39;5.07;;;4.53;;
66609;SDS011;53468;48.276;14.416;2023-08-21T13:31:42;6.97;;;4.57;;
66609;SDS011;53468;48.276;14.416;2023-08-21T13:36:44;10.20;;;5.35;;
66609;SDS011;53468;48.276;14.416;2023-08-21T13:41:49;5.97;;;5.35;;
66609;SDS011;53468;48.276;14.416;2023-08-21T13:46:52;9.15;;;5.57;;
66609;SDS011;53468;48.276;14.416;2023-08-21T13:51:56;7.82;;;4.90;;
66609;SDS011;53468;48.276;14.416;2023-08-21T13:57:02;6.00;;;4.45;;
66609;SDS011;53468;48.276;14.416;2023-08-21T14:02:04;6.88;;;4.40;;
66609;SDS011;53468;48.276;14.416;2023-08-21T14:07:07;5.88;;;3.75;;
66609;SDS011;53468;48.276;14.416;2023-08-21T14:12:11;8.02;;;4.18;;
66609;SDS011;53468;48.276;14.416;2023-08-21T14:17:15;7.28;;;4.03;;
66609;SDS011;53468;48.276;14.416;2023-08-21T14:22:18;6.20;;;3.72;;
66609;SDS011;53468;48.276;14.416;2023-08-21T14:27:23;10.55;;;4.10;;
66609;SDS011;53468;48.276;14.416;2023-08-21T14:32:26;18.10;;;4.38;;
66609;SDS011;53468;48.276;14.416;2023-08-21T14:37:30;7.55;;;3.90;;
66609;SDS011;53468;48.276;14.416;2023-08-21T14:42:35;10.70;;;4.13;;
66609;SDS011;53468;48.276;14.416;2023-08-21T14:47:39;10.90;;;3.90;;
66609;SDS011;53468;48.276;14.416;2023-08-21T14:52:42;8.02;;;3.55;;
66609;SDS011;53468;48.276;14.416;2023-08-21T14:57:46;5.97;;;4.13;;
66609;SDS011;53468;48.276;14.416;2023-08-21T15:02:48;4.93;;;3.90;;
66609;SDS011;53468;48.276;14.416;2023-08-21T15:07:51;7.28;;;4.00;;
66609;SDS011;53468;48.276;14.416;2023-08-21T15:24:35;4.45;;;3.53;;
66609;SDS011;53468;48.276;14.416;2023-08-21T15:29:37;7.05;;;3.88;;
66609;SDS011;53468;48.276;14.416;2023-08-21T15:34:40;7.80;;;4.18;;
66609;SDS011;53468;48.276;14.416;2023-08-21T15:39:47;7.32;;;3.67;;
66609;SDS011;53468;48.276;14.416;2023-08-21T15:44:49;4.90;;;3.75;;
66609;SDS011;53468;48.276;14.416;2023-08-21T15:49:52;8.00;;;3.92;;
66609;SDS011;53468;48.276;14.416;2023-08-21T15:54:56;6.72;;;3.97;;
66609;SDS011;53468;48.276;14.416;2023-08-21T15:59:58;6.72;;;4.22;;
66609;SDS011;53468;48.276;14.416;2023-08-21T16:05:03;5.57;;;3.33;;
66609;SDS011;53468;48.276;14.416;2023-08-21T16:10:08;12.10;;;4.03;;
66609;SDS011;53468;48.276;14.416;2023-08-21T16:15:14;5.88;;;3.75;;
66609;SDS011;53468;48.276;14.416;2023-08-21T16:20:16;8.60;;;3.58;;
66609;SDS011;53468;48.276;14.416;2023-08-21T16:25:20;5.88;;;3.67;;
66609;SDS011;53468;48.276;14.416;2023-08-21T16:30:23;7.32;;;3.20;;
66609;SDS011;53468;48.276;14.416;2023-08-21T16:35:25;4.53;;;3.17;;
66609;SDS011;53468;48.276;14.416;2023-08-21T16:40:29;4.03;;;2.85;;
66609;SDS011;53468;48.276;14.416;2023-08-21T16:45:32;7.95;;;3.15;;
66609;SDS011;53468;48.276;14.416;2023-08-21T16:50:34;5.45;;;3.25;;
66609;SDS011;53468;48.276;14.416;2023-08-21T16:55:38;5.40;;;2.92;;
66609;SDS011;53468;48.276;14.416;2023-08-21T17:00:40;6.40;;;3.30;;
66609;SDS011;53468;48.276;14.416;2023-08-21T17:05:42;6.35;;;2.65;;
66609;SDS011;53468;48.276;14.416;2023-08-21T17:10:45;6.20;;;2.50;;
66609;SDS011;53468;48.276;14.416;2023-08-21T17:15:47;6.38;;;2.53;;
66609;SDS011;53468;48.276;14.416;2023-08-21T17:20:51;4.47;;;2.50;;
66609;SDS011;53468;48.276;14.416;2023-08-21T17:25:55;3.33;;;2.08;;
66609;SDS011;53468;48.276;14.416;2023-08-21T17:30:57;6.18;;;3.80;;
66609;SDS011;53468;48.276;14.416;2023-08-21T17:35:59;4.00;;;2.80;;
66609;SDS011;53468;48.276;14.416;2023-08-21T17:41:02;5.90;;;2.65;;
66609;SDS011;53468;48.276;14.416;2023-08-21T17:46:07;6.00;;;2.67;;
66609;SDS011;53468;48.276;14.416;2023-08-21T17:51:10;7.97;;;3.53;;
66609;SDS011;53468;48.276;14.416;2023-08-21T17:56:15;5.20;;;2.70;;
66609;SDS011;53468;48.276;14.416;2023-08-21T18:01:17;4.85;;;2.80;;
66609;SDS011;53468;48.276;14.416;2023-08-21T18:06:19;5.28;;;2.88;;
66609;SDS011;53468;48.276;14.416;2023-08-21T18:11:23;3.90;;;3.30;;
66609;SDS011;53468;48.276;14.416;2023-08-21T18:16:25;4.88;;;2.88;;
66609;SDS011;53468;48.276;14.416;2023-08-21T18:21:27;5.70;;;3.00;;
66609;SDS011;53468;48.276;14.416;2023-08-21T18:26:31;4.32;;;3.25;;
66609;SDS011;53468;48.276;14.416;2023-08-21T18:31:34;4.50;;;2.85;;
66609;SDS011;53468;48.276;14.416;2023-08-21T18:36:36;6.18;;;3.60;;
66609;SDS011;53468;48.276;14.416;2023-08-21T18:41:40;6.10;;;3.75;;
66609;SDS011;53468;48.276;14.416;2023-08-21T18:46:43;6.13;;;3.50;;
66609;SDS011;53468;48.276;14.416;2023-08-21T18:51:45;7.22;;;3.35;;
66609;SDS011;53468;48.276;14.416;2023-08-21T18:56:48;7.32;;;3.60;;
66609;SDS011;53468;48.276;14.416;2023-08-21T19:01:51;9.10;;;4.22;;
66609;SDS011;53468;48.276;14.416;2023-08-21T19:06:53;6.05;;;4.00;;
66609;SDS011;53468;48.276;14.416;2023-08-21T19:11:56;5.50;;;3.95;;
66609;SDS011;53468;48.276;14.416;2023-08-21T19:16:58;5.35;;;3.90;;
66609;SDS011;53468;48.276;14.416;2023-08-21T19:22:01;8.88;;;4.32;;
66609;SDS011;53468;48.276;14.416;2023-08-21T19:27:05;5.15;;;4.18;;
66609;SDS011;53468;48.276;14.416;2023-08-21T19:32:07;5.10;;;3.90;;
66609;SDS011;53468;48.276;14.416;2023-08-21T19:37:10;7.03;;;4.60;;
66609;SDS011;53468;48.276;14.416;2023-08-21T19:42:13;5.85;;;3.42;;
66609;SDS011;53468;48.276;14.416;2023-08-21T19:47:15;6.97;;;4.30;;
66609;SDS011;53468;48.276;14.416;2023-08-21T19:52:18;7.15;;;3.90;;
66609;SDS011;53468;48.276;14.416;2023-08-21T19:57:21;5.80;;;4.45;;
66609;SDS011;53468;48.276;14.416;2023-08-21T20:02:23;5.95;;;4.28;;
66609;SDS011;53468;48.276;14.416;2023-08-21T20:07:25;6.03;;;4.75;;
66609;SDS011;53468;48.276;14.416;2023-08-21T20:12:29;7.97;;;4.28;;
66609;SDS011;53468;48.276;14.416;2023-08-21T20:17:31;7.45;;;5.32;;
66609;SDS011;53468;48.276;14.416;2023-08-21T20:22:33;11.70;;;4.88;;
66609;SDS011;53468;48.276;14.416;2023-08-21T20:27:37;9.68;;;4.57;;
66609;SDS011;53468;48.276;14.416;2023-08-21T20:32:39;7.30;;;4.72;;
66609;SDS011;53468;48.276;14.416;2023-08-21T20:37:41;6.75;;;4.85;;
66609;SDS011;53468;48.276;14.416;2023-08-21T20:42:45;11.30;;;4.95;;
66609;SDS011;53468;48.276;14.416;2023-08-21T20:47:47;6.85;;;4.43;;
66609;SDS011;53468;48.276;14.416;2023-08-21T20:52:50;9.40;;;5.35;;
66609;SDS011;53468;48.276;14.416;2023-08-21T20:57:54;9.30;;;5.18;;
66609;SDS011;53468;48.276;14.416;2023-08-21T21:02:56;12.18;;;5.45;;
66609;SDS011;53468;48.276;14.416;2023-08-21T21:07:58;7.10;;;4.70;;
66609;SDS011;53468;48.276;14.416;2023-08-21T21:13:02;9.80;;;5.70;;
66609;SDS011;53468;48.276;14.416;2023-08-21T21:18:04;7.53;;;5.35;;
66609;SDS011;53468;48.276;14.416;2023-08-21T21:23:07;8.70;;;5.13;;
66609;SDS011;53468;48.276;14.416;2023-08-21T21:28:11;7.93;;;5.50;;
66609;SDS011;53468;48.276;14.416;2023-08-21T21:33:14;10.70;;;6.15;;
66609;SDS011;53468;48.276;14.416;2023-08-21T21:38:17;7.25;;;5.88;;
66609;SDS011;53468;48.276;14.416;2023-08-21T21:43:22;10.10;;;5.57;;
66609;SDS011;53468;48.276;14.416;2023-08-21T21:48:25;15.75;;;6.20;;
66609;SDS011;53468;48.276;14.416;2023-08-21T21:53:27;12.55;;;6.45;;
66609;SDS011;53468;48.276;14.416;2023-08-21T21:58:31;10.23;;;5.97;;
66609;SDS011;53468;48.276;14.416;2023-08-21T22:03:33;9.57;;;5.93;;
66609;SDS011;53468;48.276;14.416;2023-08-21T22:08:35;7.82;;;5.82;;
66609;SDS011;53468;48.276;14.416;2023-08-21T22:13:38;7.85;;;6.28;;
66609;SDS011;53468;48.276;14.416;2023-08-21T22:18:40;9.02;;;5.88;;
66609;SDS011;53468;48.276;14.416;2023-08-21T22:23:44;9.75;;;6.85;;
66609;SDS011;53468;48.276;14.416;2023-08-21T22:28:47;11.32;;;6.28;;
66609;SDS011;53468;48.276;14.416;2023-08-21T22:33:50;9.68;;;7.03;;
66609;SDS011;53468;48.276;14.416;2023-08-21T22:38:52;9.05;;;6.55;;
66609;SDS011;53468;48.276;14.416;2023-08-21T22:43:56;9.57;;;6.20;;
66609;SDS011;53468;48.276;14.416;2023-08-21T22:48:59;10.05;;;6.55;;
66609;SDS011;53468;48.276;14.416;2023-08-21T22:54:01;11.60;;;6.60;;
66609;SDS011;53468;48.276;14.416;2023-08-21T22:59:05;8.25;;;6.15;;
66609;SDS011;53468;48.276;14.416;2023-08-21T23:04:07;8.68;;;6.25;;
66609;SDS011;53468;48.276;14.416;2023-08-21T23:09:10;12.57;;;6.95;;
66609;SDS011;53468;48.276;14.416;2023-08-21T23:14:15;7.50;;;6.25;;
66609;SDS011;53468;48.276;14.416;2023-08-21T23:19:17;10.25;;;7.10;;
66609;SDS011;53468;48.276;14.416;2023-08-21T23:24:19;13.98;;;7.50;;
66609;SDS011;53468;48.276;14.416;2023-08-21T23:29:23;10.32;;;7.20;;
66609;SDS011;53468;48.276;14.416;2023-08-21T23:34:25;10.10;;;7.30;;
66609;SDS011;53468;48.276;14.416;2023-08-21T23:39:28;14.77;;;8.10;;
66609;SDS011;53468;48.276;14.416;2023-08-21T23:44:32;10.82;;;7.18;;
66609;SDS011;53468;48.276;14.416;2023-08-21T23:49:34;12.75;;;7.90;;
66609;SDS011;53468;48.276;14.416;2023-08-21T23:54:36;10.93;;;7.78;;
66609;SDS011;53468;48.276;14.416;2023-08-21T23:59:40;13.07;;;7.80;;
